Airport View

Enter AWOS ICAO identifier for current METAR.

ex. KFNL

PAPH 191856Z AUTO 25007KT 10SM OVC010 10/07 A3025 RMK AO2 SLP248 T01000072

19 Jun 2019 19:04

Frequency: 135.4

Phone: 907-837-2406

Other Area AWOS: PAJC - PAPN - PAII - PAOU

TAF PASD 191742Z 1918/2018 VRB04KT P6SM FEW020 SCT040 SCT100 AMD LTD TO CLD VIS AND WIND